Shelby County Airport
KEET : now visible

Airfield :











YOU CAN JOIN US ON...

 
LOGIN :

Register | Disclaimer

   EN    FR    IT 

 









Legend :    VFR   Marginal VFR   IFR   Intensive IFR   Very Intensive IFR
Visi :
Ceiling :
>= 8 km
>= 3000ft
5 to 8 km
1000 to 3000 ft
1500m to 5 km
500 to 1000 ft
800 to 1500m
200 to 500 ft
< 800m
< 200 ft
Symbols :   Thunderstorms  Fog  Heavy snow  Heavy precipitations  Wind > 20 kt






- Airport Elevation : 586 ft


KEET - Shelby County

CURRENT METAR :
  • 190153Z AUTO 31003KT 10SM CLR 07/04 A2987 RMK AO2 SLP114 T00670039

EXPIRED METARs :
  • 190053Z AUTO 28003KT 10SM CLR 08/04 A2985 RMK AO2 SLP109 T00830039
  • 182353Z AUTO 00000KT 10SM CLR 09/04 A2984 RMK AO2 SLP106 T00940044 10156 20094 51006

TAF KEET
Valid from the 19 at 00:00 until the 20 at 00:00 UTC


182340Z 1900/1924 VRB04KT P6SM BKN250
FM191200 21005KT P6SM BKN080
FM192200 26009KT P6SM SCT050 SCT100



MET'MAP, your aeronautical weather chart ! - Copyright ORBIFLY December 2007 - Disclaimer

ORBIFLY MET'MAP TEAM :

Programming & Development : Alexandra Zaïnal
Concept & Development : Baudouin d'Aumeries
Co-Development & Prog : Marc-Olivier Méhu
Technical & hardware support : Manuel Goepfert

Contact : metmap@orbifly.com




SOURCES & CREDITS :

   NOAA       Earth
Advisory